sensor_id;sensor_type;location;lat;lon;timestamp;temperature;humidity
15450;DHT22;7826;49.784;9.934;2022-08-19T00:01:29;21.30;91.30
15450;DHT22;7826;49.784;9.934;2022-08-19T00:03:57;21.30;91.20
15450;DHT22;7826;49.784;9.934;2022-08-19T00:06:24;21.30;91.30
15450;DHT22;7826;49.784;9.934;2022-08-19T00:08:51;21.30;91.20
15450;DHT22;7826;49.784;9.934;2022-08-19T00:11:18;21.20;91.10
15450;DHT22;7826;49.784;9.934;2022-08-19T00:13:45;21.20;91.20
15450;DHT22;7826;49.784;9.934;2022-08-19T00:16:17;21.10;91.20
15450;DHT22;7826;49.784;9.934;2022-08-19T00:18:47;21.20;91.20
15450;DHT22;7826;49.784;9.934;2022-08-19T00:21:14;21.10;91.20
15450;DHT22;7826;49.784;9.934;2022-08-19T00:23:41;21.10;91.20
15450;DHT22;7826;49.784;9.934;2022-08-19T00:26:10;21.10;91.30
15450;DHT22;7826;49.784;9.934;2022-08-19T00:28:36;21.10;91.30
15450;DHT22;7826;49.784;9.934;2022-08-19T00:31:04;21.00;91.30
15450;DHT22;7826;49.784;9.934;2022-08-19T00:33:31;21.00;91.40
15450;DHT22;7826;49.784;9.934;2022-08-19T00:36:03;21.00;91.50
15450;DHT22;7826;49.784;9.934;2022-08-19T00:38:33;20.90;91.40
15450;DHT22;7826;49.784;9.934;2022-08-19T00:41:00;20.90;91.50
15450;DHT22;7826;49.784;9.934;2022-08-19T00:43:27;20.90;91.60
15450;DHT22;7826;49.784;9.934;2022-08-19T00:45:54;20.90;91.60
15450;DHT22;7826;49.784;9.934;2022-08-19T00:48:22;20.90;91.70
15450;DHT22;7826;49.784;9.934;2022-08-19T00:50:50;20.80;91.70
15450;DHT22;7826;49.784;9.934;2022-08-19T00:53:22;20.70;91.70
15450;DHT22;7826;49.784;9.934;2022-08-19T00:55:51;20.70;91.80
15450;DHT22;7826;49.784;9.934;2022-08-19T00:58:20;20.70;91.90
15450;DHT22;7826;49.784;9.934;2022-08-19T01:00:48;20.70;91.90
15450;DHT22;7826;49.784;9.934;2022-08-19T01:03:18;20.60;91.80
15450;DHT22;7826;49.784;9.934;2022-08-19T01:05:46;20.60;91.90
15450;DHT22;7826;49.784;9.934;2022-08-19T01:08:14;20.60;91.90
15450;DHT22;7826;49.784;9.934;2022-08-19T01:10:55;20.50;92.00
15450;DHT22;7826;49.784;9.934;2022-08-19T01:13:24;20.50;92.10
15450;DHT22;7826;49.784;9.934;2022-08-19T01:16:01;20.50;92.10
15450;DHT22;7826;49.784;9.934;2022-08-19T01:18:29;20.40;92.20
15450;DHT22;7826;49.784;9.934;2022-08-19T01:21:09;20.40;92.30
15450;DHT22;7826;49.784;9.934;2022-08-19T01:23:45;20.40;92.50
15450;DHT22;7826;49.784;9.934;2022-08-19T01:26:21;20.30;92.50
15450;DHT22;7826;49.784;9.934;2022-08-19T01:29:03;20.30;92.60
15450;DHT22;7826;49.784;9.934;2022-08-19T01:31:37;20.30;92.80
15450;DHT22;7826;49.784;9.934;2022-08-19T01:34:08;20.20;92.80
15450;DHT22;7826;49.784;9.934;2022-08-19T01:36:42;20.20;93.20
15450;DHT22;7826;49.784;9.934;2022-08-19T01:39:19;20.20;93.00
15450;DHT22;7826;49.784;9.934;2022-08-19T01:42:00;20.20;93.10
15450;DHT22;7826;49.784;9.934;2022-08-19T01:44:32;20.30;93.10
15450;DHT22;7826;49.784;9.934;2022-08-19T01:47:01;20.30;93.00
15450;DHT22;7826;49.784;9.934;2022-08-19T01:49:33;20.30;93.00
15450;DHT22;7826;49.784;9.934;2022-08-19T01:52:02;20.30;93.00
15450;DHT22;7826;49.784;9.934;2022-08-19T01:54:32;20.30;92.90
15450;DHT22;7826;49.784;9.934;2022-08-19T01:57:15;20.30;92.90
15450;DHT22;7826;49.784;9.934;2022-08-19T01:59:44;20.30;92.90
15450;DHT22;7826;49.784;9.934;2022-08-19T02:02:16;20.20;92.90
15450;DHT22;7826;49.784;9.934;2022-08-19T02:04:51;20.30;93.10
15450;DHT22;7826;49.784;9.934;2022-08-19T02:07:22;20.20;93.10
15450;DHT22;7826;49.784;9.934;2022-08-19T02:10:20;20.20;93.20
15450;DHT22;7826;49.784;9.934;2022-08-19T02:12:50;20.10;93.30
15450;DHT22;7826;49.784;9.934;2022-08-19T02:15:26;20.10;93.40
15450;DHT22;7826;49.784;9.934;2022-08-19T02:18:01;20.10;93.40
15450;DHT22;7826;49.784;9.934;2022-08-19T02:20:36;20.10;93.40
15450;DHT22;7826;49.784;9.934;2022-08-19T02:23:07;20.00;93.50
15450;DHT22;7826;49.784;9.934;2022-08-19T02:25:35;20.00;93.70
15450;DHT22;7826;49.784;9.934;2022-08-19T02:28:03;20.00;93.70
15450;DHT22;7826;49.784;9.934;2022-08-19T02:30:33;20.00;93.80
15450;DHT22;7826;49.784;9.934;2022-08-19T02:33:06;20.00;93.90
15450;DHT22;7826;49.784;9.934;2022-08-19T02:35:41;20.00;94.00
15450;DHT22;7826;49.784;9.934;2022-08-19T02:38:20;20.00;93.90
15450;DHT22;7826;49.784;9.934;2022-08-19T02:41:00;20.00;94.10
15450;DHT22;7826;49.784;9.934;2022-08-19T02:43:31;20.00;94.10
15450;DHT22;7826;49.784;9.934;2022-08-19T02:46:15;20.00;94.20
15450;DHT22;7826;49.784;9.934;2022-08-19T02:48:44;19.90;94.30
15450;DHT22;7826;49.784;9.934;2022-08-19T02:51:19;19.90;94.30
15450;DHT22;7826;49.784;9.934;2022-08-19T02:53:46;19.90;94.40
15450;DHT22;7826;49.784;9.934;2022-08-19T02:56:13;19.80;94.50
15450;DHT22;7826;49.784;9.934;2022-08-19T02:58:40;19.80;94.80
15450;DHT22;7826;49.784;9.934;2022-08-19T03:01:07;19.80;94.80
15450;DHT22;7826;49.784;9.934;2022-08-19T03:03:33;19.80;94.90
15450;DHT22;7826;49.784;9.934;2022-08-19T03:06:10;19.80;95.00
15450;DHT22;7826;49.784;9.934;2022-08-19T03:08:37;19.80;95.10
15450;DHT22;7826;49.784;9.934;2022-08-19T03:11:04;19.90;95.10
15450;DHT22;7826;49.784;9.934;2022-08-19T03:13:31;19.90;95.00
15450;DHT22;7826;49.784;9.934;2022-08-19T03:15:58;19.90;95.00
15450;DHT22;7826;49.784;9.934;2022-08-19T03:18:24;19.90;95.10
15450;DHT22;7826;49.784;9.934;2022-08-19T03:20:52;19.90;95.10
15450;DHT22;7826;49.784;9.934;2022-08-19T03:23:39;19.80;95.10
15450;DHT22;7826;49.784;9.934;2022-08-19T03:26:24;19.90;95.20
15450;DHT22;7826;49.784;9.934;2022-08-19T03:28:51;19.80;95.10
15450;DHT22;7826;49.784;9.934;2022-08-19T03:31:22;19.80;95.30
15450;DHT22;7826;49.784;9.934;2022-08-19T03:33:51;19.80;95.30
15450;DHT22;7826;49.784;9.934;2022-08-19T03:36:22;19.70;95.40
15450;DHT22;7826;49.784;9.934;2022-08-19T03:38:58;19.70;95.50
15450;DHT22;7826;49.784;9.934;2022-08-19T03:41:27;19.60;95.70
15450;DHT22;7826;49.784;9.934;2022-08-19T03:43:55;19.60;95.90
15450;DHT22;7826;49.784;9.934;2022-08-19T03:46:28;19.60;96.10
15450;DHT22;7826;49.784;9.934;2022-08-19T03:48:56;19.60;96.20
15450;DHT22;7826;49.784;9.934;2022-08-19T03:51:28;19.60;96.30
15450;DHT22;7826;49.784;9.934;2022-08-19T03:53:58;19.60;96.40
15450;DHT22;7826;49.784;9.934;2022-08-19T03:56:25;19.60;96.50
15450;DHT22;7826;49.784;9.934;2022-08-19T03:58:54;19.60;96.60
15450;DHT22;7826;49.784;9.934;2022-08-19T04:01:23;19.50;96.60
15450;DHT22;7826;49.784;9.934;2022-08-19T04:03:50;19.50;96.80
15450;DHT22;7826;49.784;9.934;2022-08-19T04:06:22;19.50;96.90
15450;DHT22;7826;49.784;9.934;2022-08-19T04:08:50;19.50;96.90
15450;DHT22;7826;49.784;9.934;2022-08-19T04:11:19;19.50;96.90
15450;DHT22;7826;49.784;9.934;2022-08-19T04:13:51;19.50;97.00
15450;DHT22;7826;49.784;9.934;2022-08-19T04:16:19;19.50;97.00
15450;DHT22;7826;49.784;9.934;2022-08-19T04:18:47;19.50;97.20
15450;DHT22;7826;49.784;9.934;2022-08-19T04:21:25;19.50;97.20
15450;DHT22;7826;49.784;9.934;2022-08-19T04:23:53;19.50;97.40
15450;DHT22;7826;49.784;9.934;2022-08-19T04:26:27;19.40;97.50
15450;DHT22;7826;49.784;9.934;2022-08-19T04:28:54;19.40;97.70
15450;DHT22;7826;49.784;9.934;2022-08-19T04:31:24;19.50;97.90
15450;DHT22;7826;49.784;9.934;2022-08-19T04:33:55;19.50;97.80
15450;DHT22;7826;49.784;9.934;2022-08-19T04:36:28;19.50;97.90
15450;DHT22;7826;49.784;9.934;2022-08-19T04:38:58;19.50;97.90
15450;DHT22;7826;49.784;9.934;2022-08-19T04:41:25;19.60;98.00
15450;DHT22;7826;49.784;9.934;2022-08-19T04:44:10;19.60;97.70
15450;DHT22;7826;49.784;9.934;2022-08-19T04:46:37;19.60;97.80
15450;DHT22;7826;49.784;9.934;2022-08-19T04:49:05;19.70;97.90
15450;DHT22;7826;49.784;9.934;2022-08-19T04:51:33;19.70;97.80
15450;DHT22;7826;49.784;9.934;2022-08-19T04:54:01;19.70;97.60
15450;DHT22;7826;49.784;9.934;2022-08-19T04:56:27;19.80;97.70
15450;DHT22;7826;49.784;9.934;2022-08-19T04:58:55;19.80;97.50
15450;DHT22;7826;49.784;9.934;2022-08-19T05:01:26;19.80;97.50
15450;DHT22;7826;49.784;9.934;2022-08-19T05:03:54;19.80;97.40
15450;DHT22;7826;49.784;9.934;2022-08-19T05:06:22;19.90;97.30
15450;DHT22;7826;49.784;9.934;2022-08-19T05:08:49;19.90;97.20
15450;DHT22;7826;49.784;9.934;2022-08-19T05:11:19;20.00;97.10
15450;DHT22;7826;49.784;9.934;2022-08-19T05:13:46;20.00;97.00
15450;DHT22;7826;49.784;9.934;2022-08-19T05:16:16;20.00;96.80
15450;DHT22;7826;49.784;9.934;2022-08-19T05:18:44;20.00;96.70
15450;DHT22;7826;49.784;9.934;2022-08-19T05:21:29;20.00;96.60
15450;DHT22;7826;49.784;9.934;2022-08-19T05:24:15;20.10;96.70
15450;DHT22;7826;49.784;9.934;2022-08-19T05:26:45;20.20;96.50
15450;DHT22;7826;49.784;9.934;2022-08-19T05:29:14;20.20;96.40
15450;DHT22;7826;49.784;9.934;2022-08-19T05:31:41;20.30;96.30
15450;DHT22;7826;49.784;9.934;2022-08-19T05:34:08;20.40;96.10
15450;DHT22;7826;49.784;9.934;2022-08-19T05:36:41;20.40;95.80
15450;DHT22;7826;49.784;9.934;2022-08-19T05:39:18;20.40;95.70
15450;DHT22;7826;49.784;9.934;2022-08-19T05:41:46;20.50;95.40
15450;DHT22;7826;49.784;9.934;2022-08-19T05:44:14;20.50;95.30
15450;DHT22;7826;49.784;9.934;2022-08-19T05:46:44;20.50;95.20
15450;DHT22;7826;49.784;9.934;2022-08-19T05:49:13;20.50;95.30
15450;DHT22;7826;49.784;9.934;2022-08-19T05:51:40;20.60;95.10
15450;DHT22;7826;49.784;9.934;2022-08-19T05:54:07;20.50;95.20
15450;DHT22;7826;49.784;9.934;2022-08-19T05:56:35;20.50;95.20
15450;DHT22;7826;49.784;9.934;2022-08-19T05:59:05;20.50;95.30
15450;DHT22;7826;49.784;9.934;2022-08-19T06:01:39;20.40;95.40
15450;DHT22;7826;49.784;9.934;2022-08-19T06:04:06;20.40;95.30
15450;DHT22;7826;49.784;9.934;2022-08-19T06:06:33;20.40;95.40
15450;DHT22;7826;49.784;9.934;2022-08-19T06:09:04;20.40;95.60
15450;DHT22;7826;49.784;9.934;2022-08-19T06:14:10;20.50;95.60
15450;DHT22;7826;49.784;9.934;2022-08-19T06:16:41;20.60;95.60
15450;DHT22;7826;49.784;9.934;2022-08-19T06:19:11;20.60;95.50
15450;DHT22;7826;49.784;9.934;2022-08-19T06:21:40;20.60;95.30
15450;DHT22;7826;49.784;9.934;2022-08-19T06:24:09;20.70;95.30
15450;DHT22;7826;49.784;9.934;2022-08-19T06:26:37;20.70;95.20
15450;DHT22;7826;49.784;9.934;2022-08-19T06:29:05;20.80;95.20
15450;DHT22;7826;49.784;9.934;2022-08-19T06:31:34;20.90;95.30
15450;DHT22;7826;49.784;9.934;2022-08-19T06:34:01;21.00;94.90
15450;DHT22;7826;49.784;9.934;2022-08-19T06:36:32;21.10;94.80
15450;DHT22;7826;49.784;9.934;2022-08-19T06:39:10;21.20;94.40
15450;DHT22;7826;49.784;9.934;2022-08-19T06:41:39;21.30;94.30
15450;DHT22;7826;49.784;9.934;2022-08-19T06:44:07;21.40;94.20
15450;DHT22;7826;49.784;9.934;2022-08-19T06:46:34;21.50;94.00
15450;DHT22;7826;49.784;9.934;2022-08-19T06:49:00;21.60;93.90
15450;DHT22;7826;49.784;9.934;2022-08-19T06:51:27;21.60;93.60
15450;DHT22;7826;49.784;9.934;2022-08-19T06:53:54;21.60;93.50
15450;DHT22;7826;49.784;9.934;2022-08-19T06:56:24;21.70;93.40
15450;DHT22;7826;49.784;9.934;2022-08-19T06:58:51;21.70;93.30
15450;DHT22;7826;49.784;9.934;2022-08-19T07:01:19;21.70;93.20
15450;DHT22;7826;49.784;9.934;2022-08-19T07:03:46;21.70;93.10
15450;DHT22;7826;49.784;9.934;2022-08-19T07:06:15;21.70;93.10
15450;DHT22;7826;49.784;9.934;2022-08-19T07:08:44;21.80;93.10
15450;DHT22;7826;49.784;9.934;2022-08-19T07:11:15;21.90;92.80
15450;DHT22;7826;49.784;9.934;2022-08-19T07:13:44;21.90;93.00
15450;DHT22;7826;49.784;9.934;2022-08-19T07:16:17;22.00;92.50
15450;DHT22;7826;49.784;9.934;2022-08-19T07:18:46;22.00;92.40
15450;DHT22;7826;49.784;9.934;2022-08-19T07:21:18;22.00;92.30
15450;DHT22;7826;49.784;9.934;2022-08-19T07:23:45;22.10;92.20
15450;DHT22;7826;49.784;9.934;2022-08-19T07:26:18;22.10;92.20
15450;DHT22;7826;49.784;9.934;2022-08-19T07:28:46;22.10;92.10
15450;DHT22;7826;49.784;9.934;2022-08-19T07:31:17;22.20;92.30
15450;DHT22;7826;49.784;9.934;2022-08-19T07:33:46;22.20;91.90
15450;DHT22;7826;49.784;9.934;2022-08-19T07:36:14;22.20;91.90
15450;DHT22;7826;49.784;9.934;2022-08-19T07:38:43;22.20;91.80
15450;DHT22;7826;49.784;9.934;2022-08-19T07:41:12;22.10;91.80
15450;DHT22;7826;49.784;9.934;2022-08-19T07:43:39;22.10;92.20
15450;DHT22;7826;49.784;9.934;2022-08-19T07:46:06;22.10;92.20
15450;DHT22;7826;49.784;9.934;2022-08-19T07:48:32;22.00;92.20
15450;DHT22;7826;49.784;9.934;2022-08-19T07:51:01;21.90;92.30
15450;DHT22;7826;49.784;9.934;2022-08-19T07:53:29;21.90;92.60
15450;DHT22;7826;49.784;9.934;2022-08-19T07:55:57;22.00;92.60
15450;DHT22;7826;49.784;9.934;2022-08-19T07:58:27;22.10;92.40
15450;DHT22;7826;49.784;9.934;2022-08-19T08:00:54;22.10;92.30
15450;DHT22;7826;49.784;9.934;2022-08-19T08:03:21;22.00;92.20
15450;DHT22;7826;49.784;9.934;2022-08-19T08:06:08;22.10;92.30
15450;DHT22;7826;49.784;9.934;2022-08-19T08:08:53;22.10;92.10
15450;DHT22;7826;49.784;9.934;2022-08-19T08:11:39;22.10;92.10
15450;DHT22;7826;49.784;9.934;2022-08-19T08:14:06;22.20;92.00
15450;DHT22;7826;49.784;9.934;2022-08-19T08:16:36;22.30;92.10
15450;DHT22;7826;49.784;9.934;2022-08-19T08:19:06;22.60;91.90
15450;DHT22;7826;49.784;9.934;2022-08-19T08:21:33;22.80;91.50
15450;DHT22;7826;49.784;9.934;2022-08-19T08:24:00;23.20;91.20
15450;DHT22;7826;49.784;9.934;2022-08-19T08:26:26;23.60;90.60
15450;DHT22;7826;49.784;9.934;2022-08-19T08:28:53;23.90;89.50
15450;DHT22;7826;49.784;9.934;2022-08-19T08:31:20;24.00;87.40
15450;DHT22;7826;49.784;9.934;2022-08-19T08:33:47;24.00;86.60
15450;DHT22;7826;49.784;9.934;2022-08-19T08:36:14;24.10;86.20
15450;DHT22;7826;49.784;9.934;2022-08-19T08:38:42;24.10;86.20
15450;DHT22;7826;49.784;9.934;2022-08-19T08:41:34;24.00;85.30
15450;DHT22;7826;49.784;9.934;2022-08-19T08:44:02;23.90;85.50
15450;DHT22;7826;49.784;9.934;2022-08-19T08:46:42;23.70;85.80
15450;DHT22;7826;49.784;9.934;2022-08-19T08:51:45;23.70;85.70
15450;DHT22;7826;49.784;9.934;2022-08-19T08:54:18;23.70;86.20
15450;DHT22;7826;49.784;9.934;2022-08-19T08:56:47;23.70;86.50
15450;DHT22;7826;49.784;9.934;2022-08-19T08:59:41;23.90;86.60
15450;DHT22;7826;49.784;9.934;2022-08-19T09:02:09;23.90;85.40
15450;DHT22;7826;49.784;9.934;2022-08-19T09:04:36;23.90;84.60
15450;DHT22;7826;49.784;9.934;2022-08-19T09:09:56;23.80;86.10
15450;DHT22;7826;49.784;9.934;2022-08-19T09:12:37;23.90;85.40
15450;DHT22;7826;49.784;9.934;2022-08-19T09:15:13;23.90;85.70
15450;DHT22;7826;49.784;9.934;2022-08-19T09:17:40;23.90;85.10
15450;DHT22;7826;49.784;9.934;2022-08-19T09:22:41;23.80;84.80
15450;DHT22;7826;49.784;9.934;2022-08-19T09:25:12;23.80;84.10
15450;DHT22;7826;49.784;9.934;2022-08-19T09:27:41;23.80;83.80
15450;DHT22;7826;49.784;9.934;2022-08-19T09:30:10;23.90;84.00
15450;DHT22;7826;49.784;9.934;2022-08-19T09:32:38;23.90;83.60
15450;DHT22;7826;49.784;9.934;2022-08-19T09:35:05;23.90;83.10
15450;DHT22;7826;49.784;9.934;2022-08-19T09:37:32;23.70;83.10
15450;DHT22;7826;49.784;9.934;2022-08-19T09:39:59;23.70;83.90
15450;DHT22;7826;49.784;9.934;2022-08-19T09:42:27;23.80;84.10
15450;DHT22;7826;49.784;9.934;2022-08-19T09:44:53;23.80;83.90
15450;DHT22;7826;49.784;9.934;2022-08-19T09:47:19;23.80;83.40
15450;DHT22;7826;49.784;9.934;2022-08-19T09:49:46;23.90;83.30
15450;DHT22;7826;49.784;9.934;2022-08-19T09:52:14;24.10;83.20
15450;DHT22;7826;49.784;9.934;2022-08-19T09:54:42;24.10;82.40
15450;DHT22;7826;49.784;9.934;2022-08-19T09:57:09;24.10;82.00
15450;DHT22;7826;49.784;9.934;2022-08-19T09:59:35;24.00;81.90
15450;DHT22;7826;49.784;9.934;2022-08-19T10:02:02;24.00;82.10
15450;DHT22;7826;49.784;9.934;2022-08-19T10:04:28;23.90;81.70
15450;DHT22;7826;49.784;9.934;2022-08-19T10:07:15;23.80;81.90
15450;DHT22;7826;49.784;9.934;2022-08-19T10:09:42;23.90;81.60
15450;DHT22;7826;49.784;9.934;2022-08-19T10:12:08;23.90;81.40
15450;DHT22;7826;49.784;9.934;2022-08-19T10:14:35;23.80;81.10
15450;DHT22;7826;49.784;9.934;2022-08-19T10:17:02;23.80;81.20
15450;DHT22;7826;49.784;9.934;2022-08-19T10:19:28;23.80;80.70
15450;DHT22;7826;49.784;9.934;2022-08-19T10:22:07;23.90;81.10
15450;DHT22;7826;49.784;9.934;2022-08-19T10:24:34;24.10;80.90
15450;DHT22;7826;49.784;9.934;2022-08-19T10:27:01;24.20;79.70
15450;DHT22;7826;49.784;9.934;2022-08-19T10:29:32;24.30;78.80
15450;DHT22;7826;49.784;9.934;2022-08-19T10:32:05;24.40;76.70
15450;DHT22;7826;49.784;9.934;2022-08-19T10:34:34;24.50;76.30
15450;DHT22;7826;49.784;9.934;2022-08-19T10:37:03;24.60;75.90
15450;DHT22;7826;49.784;9.934;2022-08-19T10:39:33;24.70;74.50
15450;DHT22;7826;49.784;9.934;2022-08-19T10:42:07;24.70;73.60
15450;DHT22;7826;49.784;9.934;2022-08-19T10:44:36;24.90;73.70
15450;DHT22;7826;49.784;9.934;2022-08-19T10:47:03;25.10;73.00
15450;DHT22;7826;49.784;9.934;2022-08-19T10:49:30;25.10;71.80
15450;DHT22;7826;49.784;9.934;2022-08-19T10:51:58;25.30;71.60
15450;DHT22;7826;49.784;9.934;2022-08-19T10:54:42;25.30;70.00
15450;DHT22;7826;49.784;9.934;2022-08-19T10:57:30;25.40;70.10
15450;DHT22;7826;49.784;9.934;2022-08-19T10:59:57;25.50;68.30
15450;DHT22;7826;49.784;9.934;2022-08-19T11:02:23;25.50;68.50
15450;DHT22;7826;49.784;9.934;2022-08-19T11:04:49;25.50;67.30
15450;DHT22;7826;49.784;9.934;2022-08-19T11:07:17;25.60;67.30
15450;DHT22;7826;49.784;9.934;2022-08-19T11:09:44;25.90;67.30
15450;DHT22;7826;49.784;9.934;2022-08-19T11:12:12;26.10;65.40
15450;DHT22;7826;49.784;9.934;2022-08-19T11:14:39;26.30;65.20
15450;DHT22;7826;49.784;9.934;2022-08-19T11:17:06;26.20;64.60
15450;DHT22;7826;49.784;9.934;2022-08-19T11:19:33;26.10;65.00
15450;DHT22;7826;49.784;9.934;2022-08-19T11:22:00;26.00;65.10
15450;DHT22;7826;49.784;9.934;2022-08-19T11:24:28;25.80;65.10
15450;DHT22;7826;49.784;9.934;2022-08-19T11:27:01;25.70;66.00
15450;DHT22;7826;49.784;9.934;2022-08-19T11:29:28;25.60;65.90
15450;DHT22;7826;49.784;9.934;2022-08-19T11:31:55;25.50;66.90
15450;DHT22;7826;49.784;9.934;2022-08-19T11:34:25;25.50;66.80
15450;DHT22;7826;49.784;9.934;2022-08-19T11:36:55;25.50;66.90
15450;DHT22;7826;49.784;9.934;2022-08-19T11:39:26;25.40;67.00
15450;DHT22;7826;49.784;9.934;2022-08-19T11:41:53;25.30;67.10
15450;DHT22;7826;49.784;9.934;2022-08-19T11:44:20;25.40;67.20
15450;DHT22;7826;49.784;9.934;2022-08-19T11:46:47;25.40;66.40
15450;DHT22;7826;49.784;9.934;2022-08-19T11:49:15;25.30;66.60
15450;DHT22;7826;49.784;9.934;2022-08-19T11:51:43;25.40;66.00
15450;DHT22;7826;49.784;9.934;2022-08-19T11:54:09;25.30;65.70
15450;DHT22;7826;49.784;9.934;2022-08-19T11:56:37;25.30;65.50
15450;DHT22;7826;49.784;9.934;2022-08-19T11:59:03;25.50;66.40
15450;DHT22;7826;49.784;9.934;2022-08-19T12:01:30;25.60;65.20
15450;DHT22;7826;49.784;9.934;2022-08-19T12:03:58;25.80;65.10
15450;DHT22;7826;49.784;9.934;2022-08-19T12:06:30;25.90;63.70
15450;DHT22;7826;49.784;9.934;2022-08-19T12:09:03;26.10;62.90
15450;DHT22;7826;49.784;9.934;2022-08-19T12:11:30;26.30;63.20
15450;DHT22;7826;49.784;9.934;2022-08-19T12:13:57;26.50;62.70
15450;DHT22;7826;49.784;9.934;2022-08-19T12:16:26;26.60;63.50
15450;DHT22;7826;49.784;9.934;2022-08-19T12:18:54;26.60;63.70
15450;DHT22;7826;49.784;9.934;2022-08-19T12:21:23;26.50;63.20
15450;DHT22;7826;49.784;9.934;2022-08-19T12:23:51;26.40;62.80
15450;DHT22;7826;49.784;9.934;2022-08-19T12:26:18;26.30;64.60
15450;DHT22;7826;49.784;9.934;2022-08-19T12:28:45;26.40;64.70
15450;DHT22;7826;49.784;9.934;2022-08-19T12:31:11;26.30;64.00
15450;DHT22;7826;49.784;9.934;2022-08-19T12:33:39;26.30;64.80
15450;DHT22;7826;49.784;9.934;2022-08-19T12:36:08;26.20;63.70
15450;DHT22;7826;49.784;9.934;2022-08-19T12:38:35;26.20;64.20
15450;DHT22;7826;49.784;9.934;2022-08-19T12:41:03;26.20;63.20
15450;DHT22;7826;49.784;9.934;2022-08-19T12:43:33;26.30;64.80
15450;DHT22;7826;49.784;9.934;2022-08-19T12:46:01;26.30;65.10
15450;DHT22;7826;49.784;9.934;2022-08-19T12:48:28;26.20;64.70
15450;DHT22;7826;49.784;9.934;2022-08-19T12:50:55;26.30;65.20
15450;DHT22;7826;49.784;9.934;2022-08-19T12:53:21;26.30;63.60
15450;DHT22;7826;49.784;9.934;2022-08-19T12:55:47;26.30;63.10
15450;DHT22;7826;49.784;9.934;2022-08-19T12:58:14;26.20;62.20
15450;DHT22;7826;49.784;9.934;2022-08-19T13:00:40;26.30;62.30
15450;DHT22;7826;49.784;9.934;2022-08-19T13:03:06;26.30;62.40
15450;DHT22;7826;49.784;9.934;2022-08-19T13:05:34;26.30;62.90
15450;DHT22;7826;49.784;9.934;2022-08-19T13:08:00;26.30;62.00
15450;DHT22;7826;49.784;9.934;2022-08-19T13:10:33;26.20;61.70
15450;DHT22;7826;49.784;9.934;2022-08-19T13:13:03;26.20;61.80
15450;DHT22;7826;49.784;9.934;2022-08-19T13:15:34;26.20;61.10
15450;DHT22;7826;49.784;9.934;2022-08-19T13:18:01;26.10;61.20
15450;DHT22;7826;49.784;9.934;2022-08-19T13:20:27;26.40;62.60
15450;DHT22;7826;49.784;9.934;2022-08-19T13:22:54;26.30;61.50
15450;DHT22;7826;49.784;9.934;2022-08-19T13:25:21;26.30;60.10
15450;DHT22;7826;49.784;9.934;2022-08-19T13:27:48;26.50;60.00
15450;DHT22;7826;49.784;9.934;2022-08-19T13:30:18;26.60;59.60
15450;DHT22;7826;49.784;9.934;2022-08-19T13:33:04;26.70;59.30
15450;DHT22;7826;49.784;9.934;2022-08-19T13:35:45;26.80;58.80
15450;DHT22;7826;49.784;9.934;2022-08-19T13:38:13;26.80;58.10
15450;DHT22;7826;49.784;9.934;2022-08-19T13:40:40;26.80;57.60
15450;DHT22;7826;49.784;9.934;2022-08-19T13:43:07;26.80;57.60
15450;DHT22;7826;49.784;9.934;2022-08-19T13:45:35;26.80;57.50
15450;DHT22;7826;49.784;9.934;2022-08-19T13:48:05;26.80;58.20
15450;DHT22;7826;49.784;9.934;2022-08-19T13:50:40;26.80;57.30
15450;DHT22;7826;49.784;9.934;2022-08-19T13:53:08;26.80;57.50
15450;DHT22;7826;49.784;9.934;2022-08-19T13:55:40;26.80;58.00
15450;DHT22;7826;49.784;9.934;2022-08-19T13:58:07;26.80;57.60
15450;DHT22;7826;49.784;9.934;2022-08-19T14:00:38;26.80;57.70
15450;DHT22;7826;49.784;9.934;2022-08-19T14:03:05;26.80;57.20
15450;DHT22;7826;49.784;9.934;2022-08-19T14:05:31;26.80;57.60
15450;DHT22;7826;49.784;9.934;2022-08-19T14:07:58;26.80;57.20
15450;DHT22;7826;49.784;9.934;2022-08-19T14:10:26;26.80;56.90
15450;DHT22;7826;49.784;9.934;2022-08-19T14:12:54;26.60;57.40
15450;DHT22;7826;49.784;9.934;2022-08-19T14:15:21;26.60;57.80
15450;DHT22;7826;49.784;9.934;2022-08-19T14:17:49;26.60;57.30
15450;DHT22;7826;49.784;9.934;2022-08-19T14:20:15;26.60;57.70
15450;DHT22;7826;49.784;9.934;2022-08-19T14:22:42;26.70;57.90
15450;DHT22;7826;49.784;9.934;2022-08-19T14:25:13;26.80;57.80
15450;DHT22;7826;49.784;9.934;2022-08-19T14:27:41;26.80;57.70
15450;DHT22;7826;49.784;9.934;2022-08-19T14:30:10;26.80;57.50
15450;DHT22;7826;49.784;9.934;2022-08-19T14:32:37;26.80;56.80
15450;DHT22;7826;49.784;9.934;2022-08-19T14:35:05;26.80;56.50
15450;DHT22;7826;49.784;9.934;2022-08-19T14:37:34;26.80;56.80
15450;DHT22;7826;49.784;9.934;2022-08-19T14:40:02;26.60;56.70
15450;DHT22;7826;49.784;9.934;2022-08-19T14:42:30;26.50;56.90
15450;DHT22;7826;49.784;9.934;2022-08-19T14:45:00;26.40;56.90
15450;DHT22;7826;49.784;9.934;2022-08-19T14:47:26;26.40;57.20
15450;DHT22;7826;49.784;9.934;2022-08-19T14:49:53;26.30;57.30
15450;DHT22;7826;49.784;9.934;2022-08-19T14:52:20;26.30;57.40
15450;DHT22;7826;49.784;9.934;2022-08-19T14:54:46;26.20;57.60
15450;DHT22;7826;49.784;9.934;2022-08-19T14:57:13;26.20;57.60
15450;DHT22;7826;49.784;9.934;2022-08-19T14:59:42;26.20;57.80
15450;DHT22;7826;49.784;9.934;2022-08-19T15:02:09;26.20;57.50
15450;DHT22;7826;49.784;9.934;2022-08-19T15:04:36;26.20;57.40
15450;DHT22;7826;49.784;9.934;2022-08-19T15:07:03;26.20;57.50
15450;DHT22;7826;49.784;9.934;2022-08-19T15:09:33;26.10;57.40
15450;DHT22;7826;49.784;9.934;2022-08-19T15:12:01;26.10;57.30
15450;DHT22;7826;49.784;9.934;2022-08-19T15:14:28;26.10;57.60
15450;DHT22;7826;49.784;9.934;2022-08-19T15:17:02;26.00;57.80
15450;DHT22;7826;49.784;9.934;2022-08-19T15:19:30;25.90;57.70
15450;DHT22;7826;49.784;9.934;2022-08-19T15:21:57;25.90;58.00
15450;DHT22;7826;49.784;9.934;2022-08-19T15:24:24;25.90;58.00
15450;DHT22;7826;49.784;9.934;2022-08-19T15:26:53;25.80;58.20
15450;DHT22;7826;49.784;9.934;2022-08-19T15:29:21;25.80;58.40
15450;DHT22;7826;49.784;9.934;2022-08-19T15:31:51;25.80;58.30
15450;DHT22;7826;49.784;9.934;2022-08-19T15:34:22;25.70;58.30
15450;DHT22;7826;49.784;9.934;2022-08-19T15:36:48;25.70;58.40
15450;DHT22;7826;49.784;9.934;2022-08-19T15:39:15;25.70;58.40
15450;DHT22;7826;49.784;9.934;2022-08-19T15:41:41;25.60;58.40
15450;DHT22;7826;49.784;9.934;2022-08-19T15:44:11;25.60;58.40
15450;DHT22;7826;49.784;9.934;2022-08-19T15:46:40;25.60;58.70
15450;DHT22;7826;49.784;9.934;2022-08-19T15:49:07;25.50;58.80
15450;DHT22;7826;49.784;9.934;2022-08-19T15:51:36;25.50;58.80
15450;DHT22;7826;49.784;9.934;2022-08-19T15:54:09;25.50;59.00
15450;DHT22;7826;49.784;9.934;2022-08-19T15:56:36;25.50;58.80
15450;DHT22;7826;49.784;9.934;2022-08-19T15:59:32;25.50;59.10
15450;DHT22;7826;49.784;9.934;2022-08-19T16:02:19;25.50;59.10
15450;DHT22;7826;49.784;9.934;2022-08-19T16:05:07;25.40;59.10
15450;DHT22;7826;49.784;9.934;2022-08-19T16:07:53;25.40;59.30
15450;DHT22;7826;49.784;9.934;2022-08-19T16:10:20;25.40;59.60
15450;DHT22;7826;49.784;9.934;2022-08-19T16:12:46;25.40;59.40